sensor_id;sensor_type;location;lat;lon;timestamp;P1;durP1;ratioP1;P2;durP2;ratioP2
56201;SDS011;42117;50.360;3.508;2023-04-23T00:00:03;11.85;;;7.60;;
56201;SDS011;42117;50.360;3.508;2023-04-23T00:02:31;9.40;;;7.57;;
56201;SDS011;42117;50.360;3.508;2023-04-23T00:04:59;14.13;;;8.20;;
56201;SDS011;42117;50.360;3.508;2023-04-23T00:07:28;13.85;;;9.02;;
56201;SDS011;42117;50.360;3.508;2023-04-23T00:09:56;13.90;;;8.27;;
56201;SDS011;42117;50.360;3.508;2023-04-23T00:12:23;14.95;;;8.48;;
56201;SDS011;42117;50.360;3.508;2023-04-23T00:14:49;22.00;;;8.98;;
56201;SDS011;42117;50.360;3.508;2023-04-23T00:17:15;12.20;;;8.50;;
56201;SDS011;42117;50.360;3.508;2023-04-23T00:19:41;10.63;;;8.48;;
56201;SDS011;42117;50.360;3.508;2023-04-23T00:22:07;11.50;;;8.32;;
56201;SDS011;42117;50.360;3.508;2023-04-23T00:24:33;11.80;;;8.63;;
56201;SDS011;42117;50.360;3.508;2023-04-23T00:27:02;13.55;;;9.15;;
56201;SDS011;42117;50.360;3.508;2023-04-23T00:29:28;16.67;;;9.43;;
56201;SDS011;42117;50.360;3.508;2023-04-23T00:31:55;15.93;;;9.70;;
56201;SDS011;42117;50.360;3.508;2023-04-23T00:34:21;11.40;;;9.38;;
56201;SDS011;42117;50.360;3.508;2023-04-23T00:36:47;13.27;;;9.13;;
56201;SDS011;42117;50.360;3.508;2023-04-23T00:39:13;12.82;;;9.60;;
56201;SDS011;42117;50.360;3.508;2023-04-23T00:41:39;17.17;;;9.50;;
56201;SDS011;42117;50.360;3.508;2023-04-23T00:44:06;14.63;;;9.35;;
56201;SDS011;42117;50.360;3.508;2023-04-23T00:46:37;15.20;;;9.13;;
56201;SDS011;42117;50.360;3.508;2023-04-23T00:49:03;13.93;;;9.80;;
56201;SDS011;42117;50.360;3.508;2023-04-23T00:51:29;12.77;;;8.93;;
56201;SDS011;42117;50.360;3.508;2023-04-23T00:53:56;12.70;;;8.95;;
56201;SDS011;42117;50.360;3.508;2023-04-23T00:56:22;13.45;;;10.20;;
56201;SDS011;42117;50.360;3.508;2023-04-23T00:58:52;16.92;;;10.13;;
56201;SDS011;42117;50.360;3.508;2023-04-23T01:01:19;18.13;;;10.05;;
56201;SDS011;42117;50.360;3.508;2023-04-23T01:03:46;16.63;;;11.07;;
56201;SDS011;42117;50.360;3.508;2023-04-23T01:06:14;14.27;;;9.30;;
56201;SDS011;42117;50.360;3.508;2023-04-23T01:08:41;17.30;;;9.75;;
56201;SDS011;42117;50.360;3.508;2023-04-23T01:11:07;15.43;;;9.77;;
56201;SDS011;42117;50.360;3.508;2023-04-23T01:13:33;22.52;;;9.95;;
56201;SDS011;42117;50.360;3.508;2023-04-23T01:16:00;14.10;;;9.32;;
56201;SDS011;42117;50.360;3.508;2023-04-23T01:18:26;15.13;;;9.50;;
56201;SDS011;42117;50.360;3.508;2023-04-23T01:20:53;14.15;;;8.75;;
56201;SDS011;42117;50.360;3.508;2023-04-23T01:23:20;17.65;;;8.30;;
56201;SDS011;42117;50.360;3.508;2023-04-23T01:25:46;13.37;;;8.03;;
56201;SDS011;42117;50.360;3.508;2023-04-23T01:28:12;15.20;;;8.23;;
56201;SDS011;42117;50.360;3.508;2023-04-23T01:30:40;12.10;;;8.48;;
56201;SDS011;42117;50.360;3.508;2023-04-23T01:33:07;12.20;;;7.93;;
56201;SDS011;42117;50.360;3.508;2023-04-23T01:35:34;13.52;;;7.70;;
56201;SDS011;42117;50.360;3.508;2023-04-23T01:38:01;14.45;;;7.47;;
56201;SDS011;42117;50.360;3.508;2023-04-23T01:40:27;11.35;;;7.35;;
56201;SDS011;42117;50.360;3.508;2023-04-23T01:42:54;13.32;;;7.93;;
56201;SDS011;42117;50.360;3.508;2023-04-23T01:45:20;14.82;;;8.18;;
56201;SDS011;42117;50.360;3.508;2023-04-23T01:47:47;11.97;;;7.73;;
56201;SDS011;42117;50.360;3.508;2023-04-23T01:50:13;12.63;;;7.40;;
56201;SDS011;42117;50.360;3.508;2023-04-23T01:52:39;14.75;;;7.40;;
56201;SDS011;42117;50.360;3.508;2023-04-23T01:55:06;9.25;;;7.43;;
56201;SDS011;42117;50.360;3.508;2023-04-23T01:57:32;11.40;;;7.00;;
56201;SDS011;42117;50.360;3.508;2023-04-23T02:00:08;8.67;;;6.30;;
56201;SDS011;42117;50.360;3.508;2023-04-23T02:02:39;8.48;;;6.43;;
56201;SDS011;42117;50.360;3.508;2023-04-23T02:05:09;11.05;;;6.68;;
56201;SDS011;42117;50.360;3.508;2023-04-23T02:07:36;12.07;;;6.00;;
56201;SDS011;42117;50.360;3.508;2023-04-23T02:10:02;10.40;;;5.40;;
56201;SDS011;42117;50.360;3.508;2023-04-23T02:12:28;13.00;;;6.68;;
56201;SDS011;42117;50.360;3.508;2023-04-23T02:14:54;7.10;;;5.75;;
56201;SDS011;42117;50.360;3.508;2023-04-23T02:17:20;7.90;;;6.70;;
56201;SDS011;42117;50.360;3.508;2023-04-23T02:19:49;7.32;;;6.50;;
56201;SDS011;42117;50.360;3.508;2023-04-23T02:22:16;10.13;;;6.40;;
56201;SDS011;42117;50.360;3.508;2023-04-23T02:24:42;9.45;;;6.50;;
56201;SDS011;42117;50.360;3.508;2023-04-23T02:27:08;8.68;;;6.38;;
56201;SDS011;42117;50.360;3.508;2023-04-23T02:29:35;10.45;;;6.60;;
56201;SDS011;42117;50.360;3.508;2023-04-23T02:32:02;10.43;;;6.53;;
56201;SDS011;42117;50.360;3.508;2023-04-23T02:34:28;8.00;;;6.65;;
56201;SDS011;42117;50.360;3.508;2023-04-23T02:36:54;7.78;;;6.95;;
56201;SDS011;42117;50.360;3.508;2023-04-23T02:39:21;7.60;;;6.53;;
56201;SDS011;42117;50.360;3.508;2023-04-23T02:41:47;10.15;;;6.55;;
56201;SDS011;42117;50.360;3.508;2023-04-23T02:44:13;8.50;;;6.95;;
56201;SDS011;42117;50.360;3.508;2023-04-23T02:46:39;13.05;;;6.85;;
56201;SDS011;42117;50.360;3.508;2023-04-23T02:49:05;9.77;;;6.75;;
56201;SDS011;42117;50.360;3.508;2023-04-23T02:51:31;9.32;;;6.18;;
56201;SDS011;42117;50.360;3.508;2023-04-23T02:53:57;9.63;;;7.25;;
56201;SDS011;42117;50.360;3.508;2023-04-23T02:56:23;10.40;;;7.25;;
56201;SDS011;42117;50.360;3.508;2023-04-23T02:58:50;10.13;;;7.07;;
56201;SDS011;42117;50.360;3.508;2023-04-23T03:01:16;12.48;;;6.95;;
56201;SDS011;42117;50.360;3.508;2023-04-23T03:03:42;8.57;;;5.90;;
56201;SDS011;42117;50.360;3.508;2023-04-23T03:06:08;10.93;;;6.57;;
56201;SDS011;42117;50.360;3.508;2023-04-23T03:08:34;10.35;;;6.35;;
56201;SDS011;42117;50.360;3.508;2023-04-23T03:11:00;8.27;;;5.85;;
56201;SDS011;42117;50.360;3.508;2023-04-23T03:13:26;8.23;;;6.40;;
56201;SDS011;42117;50.360;3.508;2023-04-23T03:15:52;6.43;;;5.70;;
56201;SDS011;42117;50.360;3.508;2023-04-23T03:18:19;8.20;;;5.80;;
56201;SDS011;42117;50.360;3.508;2023-04-23T03:20:45;7.75;;;6.05;;
56201;SDS011;42117;50.360;3.508;2023-04-23T03:23:11;7.38;;;5.47;;
56201;SDS011;42117;50.360;3.508;2023-04-23T03:25:37;8.63;;;5.80;;
56201;SDS011;42117;50.360;3.508;2023-04-23T03:28:03;9.85;;;5.10;;
56201;SDS011;42117;50.360;3.508;2023-04-23T03:30:29;10.52;;;5.55;;
56201;SDS011;42117;50.360;3.508;2023-04-23T03:32:58;15.23;;;5.60;;
56201;SDS011;42117;50.360;3.508;2023-04-23T03:35:26;7.57;;;5.57;;
56201;SDS011;42117;50.360;3.508;2023-04-23T03:37:52;8.85;;;5.70;;
56201;SDS011;42117;50.360;3.508;2023-04-23T03:40:19;10.80;;;5.72;;
56201;SDS011;42117;50.360;3.508;2023-04-23T03:42:45;8.88;;;5.72;;
56201;SDS011;42117;50.360;3.508;2023-04-23T03:45:11;8.38;;;5.72;;
56201;SDS011;42117;50.360;3.508;2023-04-23T03:47:38;10.23;;;5.55;;
56201;SDS011;42117;50.360;3.508;2023-04-23T03:50:04;10.65;;;5.55;;
56201;SDS011;42117;50.360;3.508;2023-04-23T03:52:31;9.95;;;5.00;;
56201;SDS011;42117;50.360;3.508;2023-04-23T03:54:57;8.45;;;5.43;;
56201;SDS011;42117;50.360;3.508;2023-04-23T03:57:23;8.88;;;5.40;;
56201;SDS011;42117;50.360;3.508;2023-04-23T03:59:49;7.15;;;5.15;;
56201;SDS011;42117;50.360;3.508;2023-04-23T04:02:15;9.77;;;5.23;;
56201;SDS011;42117;50.360;3.508;2023-04-23T04:04:41;10.57;;;6.13;;
56201;SDS011;42117;50.360;3.508;2023-04-23T04:07:09;12.20;;;5.13;;
56201;SDS011;42117;50.360;3.508;2023-04-23T04:09:36;9.00;;;5.18;;
56201;SDS011;42117;50.360;3.508;2023-04-23T04:12:02;8.13;;;5.47;;
56201;SDS011;42117;50.360;3.508;2023-04-23T04:14:29;12.35;;;5.53;;
56201;SDS011;42117;50.360;3.508;2023-04-23T04:16:55;8.30;;;5.40;;
56201;SDS011;42117;50.360;3.508;2023-04-23T04:19:21;12.15;;;5.90;;
56201;SDS011;42117;50.360;3.508;2023-04-23T04:21:48;9.73;;;5.63;;
56201;SDS011;42117;50.360;3.508;2023-04-23T04:24:15;11.38;;;6.20;;
56201;SDS011;42117;50.360;3.508;2023-04-23T04:26:41;7.75;;;4.68;;
56201;SDS011;42117;50.360;3.508;2023-04-23T04:29:08;7.90;;;5.25;;
56201;SDS011;42117;50.360;3.508;2023-04-23T04:31:34;6.00;;;4.90;;
56201;SDS011;42117;50.360;3.508;2023-04-23T04:34:01;6.03;;;4.85;;
56201;SDS011;42117;50.360;3.508;2023-04-23T04:36:27;6.72;;;5.07;;
56201;SDS011;42117;50.360;3.508;2023-04-23T04:38:54;6.10;;;4.72;;
56201;SDS011;42117;50.360;3.508;2023-04-23T04:41:22;6.57;;;4.72;;
56201;SDS011;42117;50.360;3.508;2023-04-23T04:43:49;6.07;;;4.70;;
56201;SDS011;42117;50.360;3.508;2023-04-23T04:46:15;9.95;;;4.22;;
56201;SDS011;42117;50.360;3.508;2023-04-23T04:48:43;5.13;;;3.92;;
56201;SDS011;42117;50.360;3.508;2023-04-23T04:51:09;9.52;;;4.40;;
56201;SDS011;42117;50.360;3.508;2023-04-23T04:53:36;8.53;;;5.10;;
56201;SDS011;42117;50.360;3.508;2023-04-23T04:56:02;8.70;;;5.10;;
56201;SDS011;42117;50.360;3.508;2023-04-23T04:58:28;8.07;;;4.78;;
56201;SDS011;42117;50.360;3.508;2023-04-23T05:00:54;11.32;;;5.22;;
56201;SDS011;42117;50.360;3.508;2023-04-23T05:03:20;9.57;;;4.95;;
56201;SDS011;42117;50.360;3.508;2023-04-23T05:05:46;10.63;;;5.38;;
56201;SDS011;42117;50.360;3.508;2023-04-23T05:08:12;8.48;;;5.38;;
56201;SDS011;42117;50.360;3.508;2023-04-23T05:10:42;11.13;;;5.47;;
56201;SDS011;42117;50.360;3.508;2023-04-23T05:13:09;6.33;;;5.40;;
56201;SDS011;42117;50.360;3.508;2023-04-23T05:18:32;9.90;;;5.30;;
56201;SDS011;42117;50.360;3.508;2023-04-23T05:20:59;5.60;;;4.80;;
56201;SDS011;42117;50.360;3.508;2023-04-23T05:23:25;11.70;;;5.20;;
56201;SDS011;42117;50.360;3.508;2023-04-23T05:25:51;8.98;;;5.63;;
56201;SDS011;42117;50.360;3.508;2023-04-23T05:28:20;11.07;;;5.15;;
56201;SDS011;42117;50.360;3.508;2023-04-23T05:30:46;9.10;;;4.90;;
56201;SDS011;42117;50.360;3.508;2023-04-23T05:33:12;13.70;;;5.85;;
56201;SDS011;42117;50.360;3.508;2023-04-23T05:35:38;6.45;;;5.28;;
56201;SDS011;42117;50.360;3.508;2023-04-23T05:38:04;12.98;;;5.43;;
56201;SDS011;42117;50.360;3.508;2023-04-23T05:40:30;6.15;;;4.70;;
56201;SDS011;42117;50.360;3.508;2023-04-23T05:42:57;8.25;;;5.15;;
56201;SDS011;42117;50.360;3.508;2023-04-23T05:45:23;12.70;;;5.22;;
56201;SDS011;42117;50.360;3.508;2023-04-23T05:47:49;10.07;;;5.13;;
56201;SDS011;42117;50.360;3.508;2023-04-23T05:50:15;7.30;;;5.05;;
56201;SDS011;42117;50.360;3.508;2023-04-23T05:52:41;5.53;;;4.63;;
56201;SDS011;42117;50.360;3.508;2023-04-23T05:55:07;8.68;;;4.97;;
56201;SDS011;42117;50.360;3.508;2023-04-23T05:57:35;6.55;;;5.30;;
56201;SDS011;42117;50.360;3.508;2023-04-23T06:00:01;8.20;;;4.63;;
56201;SDS011;42117;50.360;3.508;2023-04-23T06:02:27;5.65;;;4.80;;
56201;SDS011;42117;50.360;3.508;2023-04-23T06:04:53;10.77;;;4.47;;
56201;SDS011;42117;50.360;3.508;2023-04-23T06:07:20;7.97;;;4.55;;
56201;SDS011;42117;50.360;3.508;2023-04-23T06:09:46;5.63;;;4.80;;
56201;SDS011;42117;50.360;3.508;2023-04-23T06:12:12;6.82;;;4.40;;
56201;SDS011;42117;50.360;3.508;2023-04-23T06:14:38;7.53;;;4.75;;
56201;SDS011;42117;50.360;3.508;2023-04-23T06:17:04;9.07;;;4.90;;
56201;SDS011;42117;50.360;3.508;2023-04-23T06:19:30;7.80;;;4.45;;
56201;SDS011;42117;50.360;3.508;2023-04-23T06:21:56;5.30;;;4.70;;
56201;SDS011;42117;50.360;3.508;2023-04-23T06:24:22;5.63;;;4.35;;
56201;SDS011;42117;50.360;3.508;2023-04-23T06:26:48;7.93;;;4.25;;
56201;SDS011;42117;50.360;3.508;2023-04-23T06:29:14;7.40;;;3.63;;
56201;SDS011;42117;50.360;3.508;2023-04-23T06:31:40;4.80;;;4.33;;
56201;SDS011;42117;50.360;3.508;2023-04-23T06:34:06;6.37;;;3.80;;
56201;SDS011;42117;50.360;3.508;2023-04-23T06:36:32;9.90;;;4.00;;
56201;SDS011;42117;50.360;3.508;2023-04-23T06:38:59;7.35;;;4.03;;
56201;SDS011;42117;50.360;3.508;2023-04-23T06:41:25;7.50;;;3.80;;
56201;SDS011;42117;50.360;3.508;2023-04-23T06:43:51;10.85;;;4.30;;
56201;SDS011;42117;50.360;3.508;2023-04-23T06:46:17;7.80;;;4.30;;
56201;SDS011;42117;50.360;3.508;2023-04-23T06:48:43;7.65;;;4.25;;
56201;SDS011;42117;50.360;3.508;2023-04-23T06:51:09;7.78;;;4.18;;
56201;SDS011;42117;50.360;3.508;2023-04-23T06:53:35;6.25;;;3.55;;
56201;SDS011;42117;50.360;3.508;2023-04-23T06:56:01;8.73;;;4.20;;
56201;SDS011;42117;50.360;3.508;2023-04-23T06:58:27;8.23;;;4.40;;
56201;SDS011;42117;50.360;3.508;2023-04-23T07:00:57;5.95;;;4.20;;
56201;SDS011;42117;50.360;3.508;2023-04-23T07:03:29;9.50;;;4.27;;
56201;SDS011;42117;50.360;3.508;2023-04-23T07:05:56;6.65;;;3.80;;
56201;SDS011;42117;50.360;3.508;2023-04-23T07:08:22;8.63;;;4.20;;
56201;SDS011;42117;50.360;3.508;2023-04-23T07:10:48;7.22;;;3.45;;
56201;SDS011;42117;50.360;3.508;2023-04-23T07:13:14;4.95;;;3.30;;
56201;SDS011;42117;50.360;3.508;2023-04-23T07:15:40;8.80;;;3.70;;
56201;SDS011;42117;50.360;3.508;2023-04-23T07:18:07;7.70;;;3.65;;
56201;SDS011;42117;50.360;3.508;2023-04-23T07:20:33;7.90;;;3.50;;
56201;SDS011;42117;50.360;3.508;2023-04-23T07:22:59;5.90;;;3.70;;
56201;SDS011;42117;50.360;3.508;2023-04-23T07:25:25;4.78;;;3.75;;
56201;SDS011;42117;50.360;3.508;2023-04-23T07:27:51;5.47;;;4.13;;
56201;SDS011;42117;50.360;3.508;2023-04-23T07:30:21;5.43;;;3.45;;
56201;SDS011;42117;50.360;3.508;2023-04-23T07:32:48;5.15;;;3.75;;
56201;SDS011;42117;50.360;3.508;2023-04-23T07:35:14;7.18;;;3.88;;
56201;SDS011;42117;50.360;3.508;2023-04-23T07:37:40;6.32;;;3.65;;
56201;SDS011;42117;50.360;3.508;2023-04-23T07:40:06;8.85;;;4.53;;
56201;SDS011;42117;50.360;3.508;2023-04-23T07:42:33;6.25;;;4.22;;
56201;SDS011;42117;50.360;3.508;2023-04-23T07:44:59;5.07;;;4.00;;
56201;SDS011;42117;50.360;3.508;2023-04-23T07:47:25;7.97;;;3.80;;
56201;SDS011;42117;50.360;3.508;2023-04-23T07:49:51;5.50;;;3.60;;
56201;SDS011;42117;50.360;3.508;2023-04-23T07:52:17;4.73;;;4.17;;
56201;SDS011;42117;50.360;3.508;2023-04-23T07:54:44;9.32;;;3.97;;
56201;SDS011;42117;50.360;3.508;2023-04-23T07:57:10;4.45;;;3.90;;
56201;SDS011;42117;50.360;3.508;2023-04-23T07:59:36;16.33;;;4.20;;
56201;SDS011;42117;50.360;3.508;2023-04-23T08:02:05;7.37;;;3.77;;
56201;SDS011;42117;50.360;3.508;2023-04-23T08:04:31;9.15;;;3.65;;
56201;SDS011;42117;50.360;3.508;2023-04-23T08:06:57;3.75;;;3.42;;
56201;SDS011;42117;50.360;3.508;2023-04-23T08:09:23;7.10;;;3.33;;
56201;SDS011;42117;50.360;3.508;2023-04-23T08:11:50;8.15;;;3.85;;
56201;SDS011;42117;50.360;3.508;2023-04-23T08:14:16;4.57;;;2.97;;
56201;SDS011;42117;50.360;3.508;2023-04-23T08:16:42;7.93;;;3.40;;
56201;SDS011;42117;50.360;3.508;2023-04-23T08:19:09;11.63;;;3.53;;
56201;SDS011;42117;50.360;3.508;2023-04-23T08:21:35;6.57;;;3.13;;
56201;SDS011;42117;50.360;3.508;2023-04-23T08:24:02;10.50;;;3.55;;
56201;SDS011;42117;50.360;3.508;2023-04-23T08:26:28;3.25;;;2.92;;
56201;SDS011;42117;50.360;3.508;2023-04-23T08:28:54;5.75;;;3.08;;
56201;SDS011;42117;50.360;3.508;2023-04-23T08:31:21;7.20;;;3.67;;
56201;SDS011;42117;50.360;3.508;2023-04-23T08:33:47;8.95;;;3.08;;
56201;SDS011;42117;50.360;3.508;2023-04-23T08:36:13;9.25;;;3.17;;
56201;SDS011;42117;50.360;3.508;2023-04-23T08:38:39;5.53;;;3.47;;
56201;SDS011;42117;50.360;3.508;2023-04-23T08:41:05;9.40;;;4.03;;
56201;SDS011;42117;50.360;3.508;2023-04-23T08:43:43;5.95;;;3.75;;
56201;SDS011;42117;50.360;3.508;2023-04-23T08:46:10;7.82;;;3.30;;
56201;SDS011;42117;50.360;3.508;2023-04-23T08:48:38;6.00;;;3.47;;
56201;SDS011;42117;50.360;3.508;2023-04-23T08:51:06;5.75;;;3.90;;
56201;SDS011;42117;50.360;3.508;2023-04-23T08:53:33;13.43;;;4.05;;
56201;SDS011;42117;50.360;3.508;2023-04-23T08:55:59;7.72;;;3.53;;
56201;SDS011;42117;50.360;3.508;2023-04-23T08:58:26;6.72;;;3.72;;
56201;SDS011;42117;50.360;3.508;2023-04-23T09:00:52;7.65;;;3.75;;
56201;SDS011;42117;50.360;3.508;2023-04-23T09:03:18;3.45;;;3.15;;
56201;SDS011;42117;50.360;3.508;2023-04-23T09:05:45;6.65;;;3.28;;
56201;SDS011;42117;50.360;3.508;2023-04-23T09:08:11;7.32;;;3.60;;
56201;SDS011;42117;50.360;3.508;2023-04-23T09:10:39;9.02;;;3.47;;
56201;SDS011;42117;50.360;3.508;2023-04-23T09:13:08;4.32;;;3.25;;
56201;SDS011;42117;50.360;3.508;2023-04-23T09:15:34;7.22;;;3.20;;
56201;SDS011;42117;50.360;3.508;2023-04-23T09:18:03;9.45;;;3.40;;
56201;SDS011;42117;50.360;3.508;2023-04-23T09:20:29;11.23;;;4.15;;
56201;SDS011;42117;50.360;3.508;2023-04-23T09:22:55;6.23;;;4.10;;
56201;SDS011;42117;50.360;3.508;2023-04-23T09:25:22;7.40;;;2.93;;
56201;SDS011;42117;50.360;3.508;2023-04-23T09:27:49;6.22;;;3.03;;
56201;SDS011;42117;50.360;3.508;2023-04-23T09:30:16;8.70;;;3.40;;
56201;SDS011;42117;50.360;3.508;2023-04-23T09:32:43;11.00;;;3.70;;
56201;SDS011;42117;50.360;3.508;2023-04-23T09:35:13;7.53;;;3.55;;
56201;SDS011;42117;50.360;3.508;2023-04-23T09:37:40;16.33;;;3.70;;
56201;SDS011;42117;50.360;3.508;2023-04-23T09:40:07;5.20;;;3.38;;
56201;SDS011;42117;50.360;3.508;2023-04-23T09:42:33;5.47;;;3.83;;
56201;SDS011;42117;50.360;3.508;2023-04-23T09:45:02;5.03;;;3.78;;
56201;SDS011;42117;50.360;3.508;2023-04-23T09:50:19;9.05;;;3.90;;
56201;SDS011;42117;50.360;3.508;2023-04-23T09:52:56;6.53;;;4.00;;
56201;SDS011;42117;50.360;3.508;2023-04-23T09:55:30;3.75;;;3.10;;
56201;SDS011;42117;50.360;3.508;2023-04-23T09:58:00;6.97;;;3.58;;
56201;SDS011;42117;50.360;3.508;2023-04-23T10:00:26;5.80;;;3.80;;
56201;SDS011;42117;50.360;3.508;2023-04-23T10:02:57;8.68;;;3.60;;
56201;SDS011;42117;50.360;3.508;2023-04-23T10:05:24;10.93;;;3.93;;
56201;SDS011;42117;50.360;3.508;2023-04-23T10:07:51;3.75;;;3.35;;
56201;SDS011;42117;50.360;3.508;2023-04-23T10:10:18;7.35;;;4.13;;
56201;SDS011;42117;50.360;3.508;2023-04-23T10:12:44;6.03;;;3.58;;
56201;SDS011;42117;50.360;3.508;2023-04-23T10:15:11;6.80;;;3.50;;
56201;SDS011;42117;50.360;3.508;2023-04-23T10:17:37;4.40;;;3.10;;
56201;SDS011;42117;50.360;3.508;2023-04-23T10:20:04;7.95;;;3.08;;
56201;SDS011;42117;50.360;3.508;2023-04-23T10:22:32;4.68;;;2.90;;
56201;SDS011;42117;50.360;3.508;2023-04-23T10:24:59;4.50;;;2.50;;
56201;SDS011;42117;50.360;3.508;2023-04-23T10:27:28;6.65;;;3.45;;
56201;SDS011;42117;50.360;3.508;2023-04-23T10:29:56;5.50;;;2.90;;
56201;SDS011;42117;50.360;3.508;2023-04-23T10:32:23;5.55;;;2.90;;
56201;SDS011;42117;50.360;3.508;2023-04-23T10:34:49;7.97;;;3.08;;
56201;SDS011;42117;50.360;3.508;2023-04-23T10:37:15;3.78;;;2.80;;
56201;SDS011;42117;50.360;3.508;2023-04-23T10:39:46;4.35;;;2.70;;
56201;SDS011;42117;50.360;3.508;2023-04-23T10:42:14;4.60;;;3.10;;
56201;SDS011;42117;50.360;3.508;2023-04-23T10:44:41;6.03;;;3.83;;
56201;SDS011;42117;50.360;3.508;2023-04-23T10:47:11;5.40;;;3.08;;
56201;SDS011;42117;50.360;3.508;2023-04-23T10:49:38;3.80;;;3.28;;
56201;SDS011;42117;50.360;3.508;2023-04-23T10:52:07;4.55;;;3.35;;
56201;SDS011;42117;50.360;3.508;2023-04-23T10:54:34;5.45;;;3.10;;
56201;SDS011;42117;50.360;3.508;2023-04-23T10:57:04;4.43;;;3.00;;
56201;SDS011;42117;50.360;3.508;2023-04-23T10:59:31;4.82;;;3.42;;
56201;SDS011;42117;50.360;3.508;2023-04-23T11:01:57;4.38;;;3.33;;
56201;SDS011;42117;50.360;3.508;2023-04-23T11:04:27;3.90;;;3.58;;
56201;SDS011;42117;50.360;3.508;2023-04-23T11:06:57;4.78;;;4.18;;
56201;SDS011;42117;50.360;3.508;2023-04-23T11:09:29;6.03;;;3.10;;
56201;SDS011;42117;50.360;3.508;2023-04-23T11:11:56;3.95;;;3.63;;
56201;SDS011;42117;50.360;3.508;2023-04-23T11:17:09;4.07;;;3.78;;
56201;SDS011;42117;50.360;3.508;2023-04-23T11:19:39;5.00;;;3.80;;
56201;SDS011;42117;50.360;3.508;2023-04-23T11:22:06;3.78;;;3.50;;
56201;SDS011;42117;50.360;3.508;2023-04-23T11:24:33;4.13;;;3.72;;
56201;SDS011;42117;50.360;3.508;2023-04-23T11:27:07;4.70;;;3.83;;
56201;SDS011;42117;50.360;3.508;2023-04-23T11:29:33;4.82;;;4.53;;
56201;SDS011;42117;50.360;3.508;2023-04-23T11:31:59;5.88;;;4.60;;
56201;SDS011;42117;50.360;3.508;2023-04-23T11:34:25;4.75;;;4.35;;
56201;SDS011;42117;50.360;3.508;2023-04-23T11:36:53;7.17;;;4.90;;
56201;SDS011;42117;50.360;3.508;2023-04-23T11:39:20;4.43;;;4.03;;
56201;SDS011;42117;50.360;3.508;2023-04-23T11:41:46;3.70;;;3.50;;
56201;SDS011;42117;50.360;3.508;2023-04-23T11:44:13;3.60;;;3.40;;
56201;SDS011;42117;50.360;3.508;2023-04-23T11:46:40;3.58;;;3.35;;
56201;SDS011;42117;50.360;3.508;2023-04-23T11:49:06;3.65;;;3.35;;
56201;SDS011;42117;50.360;3.508;2023-04-23T11:51:33;4.32;;;3.40;;
56201;SDS011;42117;50.360;3.508;2023-04-23T11:54:01;3.35;;;3.05;;
56201;SDS011;42117;50.360;3.508;2023-04-23T11:56:30;4.93;;;3.03;;
56201;SDS011;42117;50.360;3.508;2023-04-23T11:58:57;3.20;;;2.70;;
56201;SDS011;42117;50.360;3.508;2023-04-23T12:01:24;3.80;;;2.97;;
56201;SDS011;42117;50.360;3.508;2023-04-23T12:03:50;3.10;;;2.90;;
56201;SDS011;42117;50.360;3.508;2023-04-23T12:06:16;4.47;;;3.30;;
56201;SDS011;42117;50.360;3.508;2023-04-23T12:08:45;5.35;;;3.08;;
56201;SDS011;42117;50.360;3.508;2023-04-23T12:11:11;5.47;;;2.90;;
56201;SDS011;42117;50.360;3.508;2023-04-23T12:13:38;2.90;;;2.70;;
56201;SDS011;42117;50.360;3.508;2023-04-23T12:16:05;4.78;;;3.38;;
56201;SDS011;42117;50.360;3.508;2023-04-23T12:18:32;2.85;;;2.65;;
56201;SDS011;42117;50.360;3.508;2023-04-23T12:21:06;2.80;;;2.60;;
56201;SDS011;42117;50.360;3.508;2023-04-23T12:23:33;3.20;;;2.90;;
56201;SDS011;42117;50.360;3.508;2023-04-23T12:26:00;4.18;;;3.50;;
56201;SDS011;42117;50.360;3.508;2023-04-23T12:28:27;3.38;;;3.15;;
56201;SDS011;42117;50.360;3.508;2023-04-23T12:30:57;3.03;;;2.67;;
56201;SDS011;42117;50.360;3.508;2023-04-23T12:33:24;4.85;;;3.00;;
56201;SDS011;42117;50.360;3.508;2023-04-23T12:35:53;4.05;;;3.25;;
56201;SDS011;42117;50.360;3.508;2023-04-23T12:38:20;3.42;;;3.20;;
56201;SDS011;42117;50.360;3.508;2023-04-23T12:40:50;4.05;;;3.13;;
56201;SDS011;42117;50.360;3.508;2023-04-23T12:43:16;4.50;;;3.17;;
56201;SDS011;42117;50.360;3.508;2023-04-23T12:45:42;3.75;;;3.55;;
56201;SDS011;42117;50.360;3.508;2023-04-23T12:48:09;3.17;;;2.97;;
56201;SDS011;42117;50.360;3.508;2023-04-23T12:50:35;3.20;;;2.60;;
56201;SDS011;42117;50.360;3.508;2023-04-23T12:53:02;3.25;;;2.95;;
56201;SDS011;42117;50.360;3.508;2023-04-23T12:55:28;2.72;;;2.63;;
56201;SDS011;42117;50.360;3.508;2023-04-23T12:57:54;2.72;;;2.63;;
56201;SDS011;42117;50.360;3.508;2023-04-23T13:00:20;2.90;;;2.70;;
56201;SDS011;42117;50.360;3.508;2023-04-23T13:02:46;3.10;;;2.90;;
56201;SDS011;42117;50.360;3.508;2023-04-23T13:05:12;3.10;;;2.90;;
56201;SDS011;42117;50.360;3.508;2023-04-23T13:07:39;3.03;;;2.72;;
56201;SDS011;42117;50.360;3.508;2023-04-23T13:10:06;3.15;;;2.88;;
56201;SDS011;42117;50.360;3.508;2023-04-23T13:12:32;3.13;;;2.83;;
56201;SDS011;42117;50.360;3.508;2023-04-23T13:14:58;6.03;;;3.10;;
56201;SDS011;42117;50.360;3.508;2023-04-23T13:17:24;2.60;;;2.38;;
56201;SDS011;42117;50.360;3.508;2023-04-23T13:19:54;3.15;;;2.88;;
56201;SDS011;42117;50.360;3.508;2023-04-23T13:22:21;3.80;;;3.20;;
56201;SDS011;42117;50.360;3.508;2023-04-23T13:24:52;4.77;;;3.40;;
56201;SDS011;42117;50.360;3.508;2023-04-23T13:27:18;3.60;;;3.40;;
56201;SDS011;42117;50.360;3.508;2023-04-23T13:29:44;3.88;;;3.58;;
56201;SDS011;42117;50.360;3.508;2023-04-23T13:32:10;4.00;;;3.33;;
56201;SDS011;42117;50.360;3.508;2023-04-23T13:34:36;4.43;;;3.78;;
56201;SDS011;42117;50.360;3.508;2023-04-23T13:37:02;3.20;;;3.03;;
56201;SDS011;42117;50.360;3.508;2023-04-23T13:39:30;3.42;;;3.22;;
56201;SDS011;42117;50.360;3.508;2023-04-23T13:41:56;2.72;;;2.53;;
56201;SDS011;42117;50.360;3.508;2023-04-23T13:44:22;3.03;;;2.92;;
56201;SDS011;42117;50.360;3.508;2023-04-23T13:46:48;2.95;;;2.80;;
56201;SDS011;42117;50.360;3.508;2023-04-23T13:49:14;3.05;;;2.85;;
56201;SDS011;42117;50.360;3.508;2023-04-23T13:51:40;2.50;;;2.40;;
56201;SDS011;42117;50.360;3.508;2023-04-23T13:54:06;3.10;;;2.83;;
56201;SDS011;42117;50.360;3.508;2023-04-23T13:56:32;3.03;;;2.72;;
56201;SDS011;42117;50.360;3.508;2023-04-23T13:58:58;3.00;;;2.60;;
56201;SDS011;42117;50.360;3.508;2023-04-23T14:01:26;2.92;;;2.70;;
56201;SDS011;42117;50.360;3.508;2023-04-23T14:03:53;4.18;;;3.00;;
56201;SDS011;42117;50.360;3.508;2023-04-23T14:06:19;3.08;;;2.90;;
56201;SDS011;42117;50.360;3.508;2023-04-23T14:08:45;3.55;;;3.10;;
56201;SDS011;42117;50.360;3.508;2023-04-23T14:11:11;4.15;;;3.63;;
56201;SDS011;42117;50.360;3.508;2023-04-23T14:13:37;3.65;;;3.35;;
56201;SDS011;42117;50.360;3.508;2023-04-23T14:16:03;3.30;;;3.10;;
56201;SDS011;42117;50.360;3.508;2023-04-23T14:18:29;4.38;;;3.03;;
56201;SDS011;42117;50.360;3.508;2023-04-23T14:20:55;4.13;;;3.72;;
56201;SDS011;42117;50.360;3.508;2023-04-23T14:25:47;3.72;;;3.42;;
56201;SDS011;42117;50.360;3.508;2023-04-23T14:28:38;4.50;;;4.10;;
56201;SDS011;42117;50.360;3.508;2023-04-23T14:31:03;3.95;;;3.65;;
56201;SDS011;42117;50.360;3.508;2023-04-23T14:33:29;4.68;;;4.28;;
56201;SDS011;42117;50.360;3.508;2023-04-23T14:35:55;3.88;;;3.50;;
56201;SDS011;42117;50.360;3.508;2023-04-23T14:38:21;3.80;;;3.60;;
56201;SDS011;42117;50.360;3.508;2023-04-23T14:40:47;3.70;;;3.50;;
56201;SDS011;42117;50.360;3.508;2023-04-23T14:43:13;3.38;;;3.15;;
56201;SDS011;42117;50.360;3.508;2023-04-23T14:45:40;3.50;;;3.30;;
56201;SDS011;42117;50.360;3.508;2023-04-23T14:48:06;3.70;;;3.40;;
56201;SDS011;42117;50.360;3.508;2023-04-23T14:50:32;3.85;;;3.55;;